Time;durP1;ratioP1;P1;durP2;ratioP2;P2;SDS_P1;SDS_P2;PMS_P1;PMS_P2;Temp;Humidity;BMP_temperature;BMP_pressure;BME280_temperature;BME280_humidity;BME280_pressure;Samples;Min_cycle;Max_cycle;Signal;HPM_P1;HPM_P2
2023/01/04 00:01:25;;;;;;;;;;;21.30;39.40;;;;;;458445;256;2235;-44
2023/01/04 00:03:27;;;;;;;;;;;21.30;39.40;;;;;;466009;252;1878;-43
2023/01/04 00:05:28;;;;;;;;;;;21.20;39.40;;;;;;475917;249;2196;-43
2023/01/04 00:07:29;;;;;;;;;;;21.20;39.40;;;;;;458208;257;1752;-43
2023/01/04 00:09:31;;;;;;;;;;;21.30;39.50;;;;;;466048;252;1677;-43
2023/01/04 00:11:32;;;;;;;;;;;21.30;39.40;;;;;;476018;249;1734;-44
2023/01/04 00:13:33;;;;;;;;;;;21.30;39.40;;;;;;458325;256;1962;-43
2023/01/04 00:15:35;;;;;;;;;;;21.20;39.40;;;;;;465925;252;2323;-44
2023/01/04 00:17:36;;;;;;;;;;;21.20;39.50;;;;;;475980;249;2060;-43
2023/01/04 00:19:37;;;;;;;;;;;21.20;39.40;;;;;;458266;256;1854;-43
2023/01/04 00:21:39;;;;;;;;;;;21.20;39.50;;;;;;465734;252;1906;-43
2023/01/04 00:23:40;;;;;;;;;;;21.20;39.40;;;;;;475951;249;1940;-43
2023/01/04 00:25:41;;;;;;;;;;;21.20;39.40;;;;;;458117;255;2154;-43
2023/01/04 00:27:42;;;;;;;;;;;21.20;39.30;;;;;;465724;252;1743;-44
2023/01/04 00:29:44;;;;;;;;;;;21.30;39.40;;;;;;475888;249;2207;-44
2023/01/04 00:31:45;;;;;;;;;;;21.20;39.40;;;;;;458025;257;1767;-43
2023/01/04 00:33:47;;;;;;;;;;;21.20;39.40;;;;;;465837;252;1583;-43
2023/01/04 00:35:48;;;;;;;;;;;21.20;39.40;;;;;;475846;249;1831;-44
2023/01/04 00:37:49;;;;;;;;;;;21.30;39.40;;;;;;458113;257;1832;-43
2023/01/04 00:39:51;;;;;;;;;;;21.20;39.30;;;;;;465872;252;1829;-43
2023/01/04 00:41:52;;;;;;;;;;;21.20;39.40;;;;;;475881;249;1680;-44
2023/01/04 00:43:53;;;;;;;;;;;21.20;39.40;;;;;;458419;256;1750;-44
2023/01/04 00:45:55;;;;;;;;;;;21.20;39.30;;;;;;465936;252;2213;-43
2023/01/04 00:47:56;;;;;;;;;;;21.20;39.40;;;;;;475884;249;1974;-43
2023/01/04 00:49:58;;;;;;;;;;;21.30;39.40;;;;;;458348;256;1884;-44
2023/01/04 00:51:59;;;;;;;;;;;21.20;39.30;;;;;;465860;252;1983;-43
2023/01/04 00:54:00;;;;;;;;;;;21.20;39.30;;;;;;476049;249;1962;-44
2023/01/04 00:56:01;;;;;;;;;;;21.20;39.40;;;;;;458217;255;1905;-43
2023/01/04 00:58:03;;;;;;;;;;;21.20;39.40;;;;;;465839;252;1761;-43
2023/01/04 01:00:04;;;;;;;;;;;21.20;39.30;;;;;;475719;249;1933;-44
2023/01/04 01:02:06;;;;;;;;;;;21.20;39.30;;;;;;458018;259;2649;-43
2023/01/04 01:04:07;;;;;;;;;;;21.20;39.40;;;;;;465728;252;2520;-43
2023/01/04 01:06:08;;;;;;;;;;;21.20;39.40;;;;;;475561;249;2565;-43
2023/01/04 01:08:24;;;;;;;;;;;21.20;39.30;;;;;;457982;256;1909;-44
2023/01/04 01:10:26;;;;;;;;;;;21.20;39.30;;;;;;465665;252;1683;-43
2023/01/04 01:12:27;;;;;;;;;;;21.20;39.30;;;;;;475729;249;1935;-43
2023/01/04 01:14:28;;;;;;;;;;;21.20;39.40;;;;;;458188;256;2153;-43
2023/01/04 01:16:30;;;;;;;;;;;21.20;39.30;;;;;;465766;252;1694;-43
2023/01/04 01:18:31;;;;;;;;;;;21.20;39.30;;;;;;475959;249;1870;-43
2023/01/04 01:20:33;;;;;;;;;;;21.20;39.30;;;;;;458070;256;1823;-43
2023/01/04 01:22:34;;;;;;;;;;;21.20;39.30;;;;;;465631;252;1724;-43
2023/01/04 01:24:35;;;;;;;;;;;21.20;39.30;;;;;;475795;249;1887;-43
2023/01/04 01:26:37;;;;;;;;;;;21.20;39.30;;;;;;458075;257;2214;-44
2023/01/04 01:28:38;;;;;;;;;;;21.20;39.30;;;;;;465843;252;1964;-43
2023/01/04 01:30:40;;;;;;;;;;;21.20;39.40;;;;;;475772;249;1929;-43
2023/01/04 01:32:41;;;;;;;;;;;21.10;39.30;;;;;;458061;256;2261;-43
2023/01/04 01:34:42;;;;;;;;;;;21.10;39.40;;;;;;465878;252;1912;-44
2023/01/04 01:36:44;;;;;;;;;;;21.20;39.30;;;;;;475595;249;1767;-43
2023/01/04 01:38:45;;;;;;;;;;;21.20;39.30;;;;;;458073;257;2000;-43
2023/01/04 01:40:46;;;;;;;;;;;21.20;39.20;;;;;;465669;252;1776;-44
2023/01/04 01:42:48;;;;;;;;;;;21.40;39.00;;;;;;475772;249;1869;-44
2023/01/04 01:44:49;;;;;;;;;;;21.60;38.60;;;;;;458185;257;1781;-43
2023/01/04 01:46:50;;;;;;;;;;;21.80;38.30;;;;;;465778;252;2205;-43
2023/01/04 01:48:52;;;;;;;;;;;21.90;37.90;;;;;;475828;249;1764;-44
2023/01/04 01:50:53;;;;;;;;;;;22.00;37.70;;;;;;458258;257;1729;-43
2023/01/04 01:52:54;;;;;;;;;;;22.20;37.50;;;;;;465786;252;1712;-44
2023/01/04 01:54:56;;;;;;;;;;;22.20;37.30;;;;;;475772;249;1758;-44
2023/01/04 01:56:57;;;;;;;;;;;22.30;37.20;;;;;;458181;257;1791;-44
2023/01/04 01:58:58;;;;;;;;;;;22.40;37.10;;;;;;465750;252;3199;-44
2023/01/04 02:01:00;;;;;;;;;;;22.40;37.00;;;;;;475879;249;1847;-43
2023/01/04 02:03:01;;;;;;;;;;;22.50;36.90;;;;;;458096;256;2307;-43
2023/01/04 02:05:02;;;;;;;;;;;22.50;36.80;;;;;;465660;252;2018;-43
2023/01/04 02:07:03;;;;;;;;;;;22.60;36.70;;;;;;475747;249;2199;-44
2023/01/04 02:09:05;;;;;;;;;;;22.60;36.70;;;;;;458030;257;1704;-43
2023/01/04 02:11:06;;;;;;;;;;;22.70;36.60;;;;;;465683;252;2699;-43
2023/01/04 02:13:07;;;;;;;;;;;22.70;36.50;;;;;;475743;249;1753;-43
2023/01/04 02:15:09;;;;;;;;;;;22.80;36.50;;;;;;458085;257;2179;-43
2023/01/04 02:17:10;;;;;;;;;;;22.80;36.40;;;;;;465811;252;2113;-44
2023/01/04 02:19:11;;;;;;;;;;;22.80;36.40;;;;;;475780;249;1841;-43
2023/01/04 02:21:13;;;;;;;;;;;22.80;36.30;;;;;;458264;257;2117;-43
2023/01/04 02:23:14;;;;;;;;;;;22.90;36.30;;;;;;466077;252;2223;-44
2023/01/04 02:25:15;;;;;;;;;;;22.90;36.20;;;;;;476058;249;2028;-43
2023/01/04 02:27:17;;;;;;;;;;;22.90;36.20;;;;;;458417;257;2171;-43
2023/01/04 02:29:18;;;;;;;;;;;22.90;36.20;;;;;;466159;252;1945;-44
2023/01/04 02:31:19;;;;;;;;;;;23.00;36.10;;;;;;476049;249;2200;-43
2023/01/04 02:33:21;;;;;;;;;;;23.00;36.10;;;;;;458345;257;1729;-44
2023/01/04 02:35:22;;;;;;;;;;;23.00;36.00;;;;;;465988;252;1734;-44
2023/01/04 02:37:23;;;;;;;;;;;23.00;36.00;;;;;;476084;249;2030;-44
2023/01/04 02:39:25;;;;;;;;;;;23.10;36.00;;;;;;458384;256;1797;-44
2023/01/04 02:41:26;;;;;;;;;;;23.10;36.00;;;;;;465939;252;1845;-43
2023/01/04 02:45:47;;;;;;;;;;;23.10;35.90;;;;;;458532;259;1871;-44
2023/01/04 02:52:27;;;;;;;;;;;23.20;35.80;;;;;;458305;259;2200;-43
2023/01/04 02:54:31;;;;;;;;;;;23.20;35.80;;;;;;466050;252;1976;-43
2023/01/04 02:56:35;;;;;;;;;;;23.20;35.80;;;;;;475855;250;2423;-44
2023/01/04 02:58:36;;;;;;;;;;;23.20;35.70;;;;;;458326;257;1922;-43
2023/01/04 03:06:14;;;;;;;;;;;23.30;35.70;;;;;;465989;252;2398;-43
2023/01/04 03:07:18;;;;;;;;;;;23.30;35.70;;;;;;466065;255;2376;-44
2023/01/04 03:09:19;;;;;;;;;;;23.30;35.70;;;;;;476007;249;2111;-43
2023/01/04 03:13:40;;;;;;;;;;;23.30;35.60;;;;;;465902;255;1796;-44
2023/01/04 03:15:41;;;;;;;;;;;23.30;35.60;;;;;;475953;249;2388;-44
2023/01/04 03:17:43;;;;;;;;;;;23.40;35.60;;;;;;458298;256;2152;-44
2023/01/04 03:19:54;;;;;;;;;;;23.40;35.60;;;;;;466132;252;2122;-44
2023/01/04 03:21:55;;;;;;;;;;;23.40;35.60;;;;;;475888;249;1934;-44
2023/01/04 03:35:36;;;;;;;;;;;23.50;35.50;;;;;;476000;250;1954;-44
2023/01/04 03:37:34;;;;;;;;;;;23.50;35.50;;;;;;457944;260;1703;-43
2023/01/04 03:48:52;;;;;;;;;;;23.30;35.70;;;;;;475868;250;1723;-43
2023/01/04 03:50:54;;;;;;;;;;;23.00;36.00;;;;;;458156;257;2112;-44
2023/01/04 03:52:55;;;;;;;;;;;22.80;36.50;;;;;;465892;252;1668;-43
2023/01/04 03:54:56;;;;;;;;;;;22.60;36.80;;;;;;476078;249;1680;-43
2023/01/04 03:56:58;;;;;;;;;;;22.50;37.20;;;;;;458249;255;1690;-44
2023/01/04 03:58:59;;;;;;;;;;;22.30;37.30;;;;;;466201;252;1683;-43
2023/01/04 04:01:02;;;;;;;;;;;22.30;37.40;;;;;;476024;249;1712;-44
2023/01/04 04:03:06;;;;;;;;;;;22.20;37.60;;;;;;458219;259;2086;-44
2023/01/04 04:09:46;;;;;;;;;;;22.10;37.90;;;;;;458413;259;1696;-43
2023/01/04 04:11:47;;;;;;;;;;;22.00;38.00;;;;;;466029;252;1866;-43
2023/01/04 04:13:48;;;;;;;;;;;22.00;38.10;;;;;;475953;249;2174;-44
2023/01/04 04:15:50;;;;;;;;;;;22.00;38.10;;;;;;458310;257;2263;-43
2023/01/04 04:17:51;;;;;;;;;;;21.90;38.20;;;;;;465948;252;1675;-44
2023/01/04 04:19:52;;;;;;;;;;;21.80;38.30;;;;;;475863;249;2187;-43
2023/01/04 04:21:54;;;;;;;;;;;21.90;38.40;;;;;;458022;257;1845;-43
2023/01/04 04:23:55;;;;;;;;;;;21.90;38.40;;;;;;465849;252;1686;-43
2023/01/04 04:25:56;;;;;;;;;;;21.80;38.30;;;;;;475944;249;2152;-44
2023/01/04 04:27:58;;;;;;;;;;;21.80;38.40;;;;;;458345;256;2197;-43
2023/01/04 04:29:59;;;;;;;;;;;21.80;38.40;;;;;;466052;252;1887;-43
2023/01/04 04:32:00;;;;;;;;;;;21.80;38.40;;;;;;475931;249;1715;-43
2023/01/04 04:34:02;;;;;;;;;;;21.80;38.50;;;;;;458360;256;2189;-43
2023/01/04 04:36:03;;;;;;;;;;;21.70;38.50;;;;;;465853;252;1678;-44
2023/01/04 04:38:05;;;;;;;;;;;21.70;38.50;;;;;;476071;249;1761;-44
2023/01/04 04:40:06;;;;;;;;;;;21.70;38.50;;;;;;458421;256;1680;-44
2023/01/04 04:42:07;;;;;;;;;;;21.70;38.40;;;;;;465886;252;1675;-43
2023/01/04 04:44:09;;;;;;;;;;;21.70;38.60;;;;;;476201;249;2056;-43
2023/01/04 04:46:10;;;;;;;;;;;21.70;38.60;;;;;;458216;257;1944;-43
2023/01/04 04:48:11;;;;;;;;;;;21.70;38.50;;;;;;465888;252;2201;-44
2023/01/04 04:50:13;;;;;;;;;;;22.00;38.20;;;;;;475917;249;2200;-43
2023/01/04 04:52:14;;;;;;;;;;;22.20;37.80;;;;;;458084;257;1781;-43
2023/01/04 04:54:16;;;;;;;;;;;22.30;37.50;;;;;;465960;252;1713;-43
2023/01/04 04:56:17;;;;;;;;;;;22.40;37.20;;;;;;475801;249;1686;-44
2023/01/04 04:58:18;;;;;;;;;;;22.50;37.10;;;;;;458332;256;1988;-43
2023/01/04 05:00:19;;;;;;;;;;;22.40;37.20;;;;;;465876;252;1615;-43
2023/01/04 05:02:21;;;;;;;;;;;22.20;37.50;;;;;;475787;249;2180;-43
2023/01/04 05:04:22;;;;;;;;;;;22.10;37.70;;;;;;458514;256;2663;-43
2023/01/04 05:06:23;;;;;;;;;;;22.00;37.80;;;;;;465761;252;2089;-44
2023/01/04 05:08:24;;;;;;;;;;;22.00;38.00;;;;;;475833;249;2196;-44
2023/01/04 05:10:26;;;;;;;;;;;21.90;38.00;;;;;;458206;257;1720;-43
2023/01/04 05:14:51;;;;;;;;;;;21.80;38.20;;;;;;472108;250;1728;-43
2023/01/04 05:16:52;;;;;;;;;;;21.80;38.30;;;;;;458025;257;1808;-43
2023/01/04 05:18:54;;;;;;;;;;;21.70;38.30;;;;;;465853;252;2202;-43
2023/01/04 05:20:55;;;;;;;;;;;21.70;38.40;;;;;;475725;249;1731;-43
2023/01/04 05:22:56;;;;;;;;;;;21.70;38.40;;;;;;458045;257;1980;-43
2023/01/04 05:24:57;;;;;;;;;;;21.70;38.50;;;;;;465777;252;2361;-43
2023/01/04 05:26:59;;;;;;;;;;;21.90;38.20;;;;;;475549;249;2152;-44
2023/01/04 05:29:00;;;;;;;;;;;22.00;37.80;;;;;;458234;256;2145;-44
2023/01/04 05:31:01;;;;;;;;;;;22.20;37.50;;;;;;465583;252;1964;-43
2023/01/04 05:33:03;;;;;;;;;;;22.40;37.20;;;;;;475658;249;2003;-44
2023/01/04 05:35:04;;;;;;;;;;;22.40;37.10;;;;;;458071;256;1840;-43
2023/01/04 05:37:05;;;;;;;;;;;22.40;37.10;;;;;;465498;252;1843;-43
2023/01/04 05:39:07;;;;;;;;;;;22.30;37.30;;;;;;475761;249;2100;-43
2023/01/04 05:42:24;;;;;;;;;;;22.10;37.50;;;;;;457899;257;1980;-43
2023/01/04 05:43:10;;;;;;;;;;;22.10;37.60;;;;;;464525;256;1895;-44
2023/01/04 05:45:11;;;;;;;;;;;22.30;37.40;;;;;;475728;249;1710;-43
2023/01/04 05:47:12;;;;;;;;;;;22.30;37.20;;;;;;458080;255;1952;-43
2023/01/04 05:49:14;;;;;;;;;;;22.20;37.30;;;;;;465831;252;2354;-43
2023/01/04 05:51:15;;;;;;;;;;;22.10;37.50;;;;;;475594;249;2151;-43
2023/01/04 05:53:17;;;;;;;;;;;22.00;37.70;;;;;;458129;257;1735;-43
2023/01/04 05:55:18;;;;;;;;;;;21.90;37.90;;;;;;465844;252;1989;-43
2023/01/04 05:57:19;;;;;;;;;;;21.80;38.00;;;;;;475699;249;1896;-43
2023/01/04 05:59:20;;;;;;;;;;;21.80;38.20;;;;;;458157;257;1759;-43
2023/01/04 06:01:22;;;;;;;;;;;21.80;38.20;;;;;;465796;252;1965;-43
2023/01/04 06:03:23;;;;;;;;;;;21.80;38.20;;;;;;475752;249;1587;-44
2023/01/04 06:05:24;;;;;;;;;;;21.70;38.30;;;;;;458196;256;2550;-43
2023/01/04 06:07:26;;;;;;;;;;;21.70;38.30;;;;;;465842;252;2209;-43
2023/01/04 06:09:27;;;;;;;;;;;21.70;38.30;;;;;;475902;249;2714;-44
2023/01/04 06:11:28;;;;;;;;;;;21.70;38.40;;;;;;458217;257;1689;-44
2023/01/04 06:13:30;;;;;;;;;;;21.70;38.40;;;;;;465782;252;1670;-43
2023/01/04 06:15:31;;;;;;;;;;;21.60;38.40;;;;;;475774;249;1703;-43
2023/01/04 06:17:32;;;;;;;;;;;21.60;38.40;;;;;;458107;256;1810;-44
2023/01/04 06:19:34;;;;;;;;;;;21.60;38.50;;;;;;465648;252;1852;-43
2023/01/04 06:21:35;;;;;;;;;;;21.60;38.50;;;;;;475662;249;1854;-44
2023/01/04 06:23:36;;;;;;;;;;;21.60;38.50;;;;;;457950;257;1831;-43
2023/01/04 06:25:38;;;;;;;;;;;21.50;38.50;;;;;;465700;252;2182;-44
2023/01/04 06:27:39;;;;;;;;;;;21.50;38.60;;;;;;475807;249;2188;-43
2023/01/04 06:29:40;;;;;;;;;;;21.50;38.50;;;;;;458269;256;2304;-43
2023/01/04 06:31:42;;;;;;;;;;;21.50;38.60;;;;;;465848;252;1849;-43
2023/01/04 06:33:43;;;;;;;;;;;21.50;38.60;;;;;;475834;249;1672;-43
2023/01/04 06:35:44;;;;;;;;;;;21.50;38.70;;;;;;458155;257;2061;-44
2023/01/04 06:37:45;;;;;;;;;;;21.40;38.70;;;;;;465770;252;2271;-43
2023/01/04 06:39:47;;;;;;;;;;;21.50;38.70;;;;;;475862;249;2087;-43
2023/01/04 06:41:48;;;;;;;;;;;21.50;38.60;;;;;;458085;256;1916;-43
2023/01/04 06:43:49;;;;;;;;;;;21.50;38.70;;;;;;465712;252;1852;-44
2023/01/04 06:45:51;;;;;;;;;;;21.50;38.60;;;;;;475781;249;2209;-43
2023/01/04 06:47:52;;;;;;;;;;;21.50;38.60;;;;;;457932;257;2194;-43
2023/01/04 06:49:53;;;;;;;;;;;21.50;38.60;;;;;;465762;252;1910;-44
2023/01/04 06:51:55;;;;;;;;;;;21.50;38.60;;;;;;475641;249;2058;-43
2023/01/04 06:53:56;;;;;;;;;;;21.50;38.60;;;;;;458115;257;2164;-43
2023/01/04 06:55:57;;;;;;;;;;;21.50;38.60;;;;;;465809;252;2139;-43
2023/01/04 06:57:59;;;;;;;;;;;21.40;38.60;;;;;;475818;249;2145;-43
2023/01/04 07:00:00;;;;;;;;;;;21.50;38.60;;;;;;458285;256;1949;-43
2023/01/04 07:02:01;;;;;;;;;;;21.40;38.60;;;;;;465744;252;1819;-43
2023/01/04 07:04:03;;;;;;;;;;;21.40;38.60;;;;;;475928;249;1688;-43
2023/01/04 07:06:04;;;;;;;;;;;21.40;38.60;;;;;;458184;257;1768;-44
2023/01/04 07:08:06;;;;;;;;;;;21.40;38.70;;;;;;465819;252;2205;-43
2023/01/04 07:10:07;;;;;;;;;;;21.40;38.60;;;;;;475798;249;2100;-44
2023/01/04 07:12:08;;;;;;;;;;;21.40;38.70;;;;;;458035;255;1855;-43
2023/01/04 07:14:09;;;;;;;;;;;21.40;38.50;;;;;;465774;252;1703;-44
2023/01/04 07:16:11;;;;;;;;;;;21.50;38.50;;;;;;475710;249;2319;-44
2023/01/04 07:18:12;;;;;;;;;;;21.50;38.50;;;;;;458154;255;2184;-44
2023/01/04 07:20:13;;;;;;;;;;;21.50;38.40;;;;;;465823;252;2093;-43
2023/01/04 07:22:15;;;;;;;;;;;21.50;38.30;;;;;;475768;249;1760;-43
2023/01/04 07:24:16;;;;;;;;;;;21.40;38.30;;;;;;458255;256;1929;-44
2023/01/04 07:26:17;;;;;;;;;;;21.50;38.40;;;;;;465812;252;1891;-43
2023/01/04 07:30:39;;;;;;;;;;;21.60;38.10;;;;;;458145;260;1897;-43
2023/01/04 07:32:41;;;;;;;;;;;21.80;37.60;;;;;;465749;252;1957;-44
2023/01/04 07:34:42;;;;;;;;;;;22.00;37.30;;;;;;476039;249;2269;-43
2023/01/04 07:36:43;;;;;;;;;;;22.20;37.00;;;;;;457991;257;1711;-44
2023/01/04 07:38:45;;;;;;;;;;;22.30;36.70;;;;;;465725;252;1708;-43
2023/01/04 07:40:46;;;;;;;;;;;22.40;36.60;;;;;;475769;249;1744;-43
2023/01/04 07:42:47;;;;;;;;;;;22.40;36.60;;;;;;457921;256;1714;-44
2023/01/04 07:44:48;;;;;;;;;;;22.40;36.60;;;;;;465679;252;1649;-43
2023/01/04 07:46:50;;;;;;;;;;;22.20;36.80;;;;;;475724;249;1744;-44
2023/01/04 07:48:51;;;;;;;;;;;22.00;37.30;;;;;;458022;257;2214;-44
2023/01/04 07:50:52;;;;;;;;;;;21.80;37.50;;;;;;465648;252;1722;-43
2023/01/04 07:52:54;;;;;;;;;;;21.70;37.80;;;;;;475696;249;1700;-43
2023/01/04 07:54:55;;;;;;;;;;;21.60;38.00;;;;;;458169;257;1969;-43
2023/01/04 07:56:56;;;;;;;;;;;21.50;38.10;;;;;;465629;252;1709;-43
2023/01/04 07:58:58;;;;;;;;;;;21.40;38.30;;;;;;475765;249;1999;-43
2023/01/04 08:00:59;;;;;;;;;;;21.30;38.40;;;;;;458053;257;1792;-43
2023/01/04 08:03:00;;;;;;;;;;;21.30;38.60;;;;;;465654;252;1688;-43
2023/01/04 08:05:02;;;;;;;;;;;21.20;38.50;;;;;;475593;249;2018;-43
2023/01/04 08:07:03;;;;;;;;;;;21.10;38.70;;;;;;457881;256;1738;-43
2023/01/04 08:09:04;;;;;;;;;;;21.20;38.80;;;;;;465725;252;2185;-44
2023/01/04 08:11:06;;;;;;;;;;;21.30;38.60;;;;;;475638;249;1742;-44
2023/01/04 08:13:07;;;;;;;;;;;21.60;38.00;;;;;;457965;256;2209;-44
2023/01/04 08:15:08;;;;;;;;;;;21.90;37.60;;;;;;465684;252;1869;-44
2023/01/04 08:17:10;;;;;;;;;;;22.10;37.20;;;;;;475544;249;1749;-43
2023/01/04 08:19:11;;;;;;;;;;;22.20;36.90;;;;;;458108;256;1827;-44
2023/01/04 08:21:12;;;;;;;;;;;22.40;36.60;;;;;;465642;252;1681;-43
2023/01/04 08:23:14;;;;;;;;;;;22.40;36.40;;;;;;475775;249;1671;-44
2023/01/04 08:25:15;;;;;;;;;;;22.50;36.30;;;;;;458079;257;2182;-44
2023/01/04 08:27:16;;;;;;;;;;;22.60;36.20;;;;;;465611;252;1699;-43
2023/01/04 08:29:18;;;;;;;;;;;22.70;36.10;;;;;;475800;249;2179;-44
2023/01/04 08:31:19;;;;;;;;;;;22.80;36.00;;;;;;458111;256;1769;-43
2023/01/04 08:33:20;;;;;;;;;;;22.80;35.90;;;;;;465838;252;1708;-44
2023/01/04 08:35:22;;;;;;;;;;;22.90;35.80;;;;;;475752;249;1835;-44
2023/01/04 08:37:23;;;;;;;;;;;22.90;35.70;;;;;;457960;257;1684;-44
2023/01/04 08:39:24;;;;;;;;;;;23.00;35.70;;;;;;465854;252;1823;-43
2023/01/04 08:41:26;;;;;;;;;;;23.00;35.60;;;;;;475588;249;1832;-43
2023/01/04 08:43:27;;;;;;;;;;;23.00;35.50;;;;;;458090;256;1714;-44
2023/01/04 08:45:29;;;;;;;;;;;23.10;35.50;;;;;;465755;252;1960;-44
2023/01/04 08:47:30;;;;;;;;;;;23.10;35.40;;;;;;475631;249;2204;-44
2023/01/04 08:49:31;;;;;;;;;;;23.10;35.40;;;;;;457964;255;2209;-44
2023/01/04 08:51:33;;;;;;;;;;;23.20;35.40;;;;;;465454;252;1690;-43
2023/01/04 08:53:34;;;;;;;;;;;23.20;35.30;;;;;;475739;249;1865;-44
2023/01/04 08:55:35;;;;;;;;;;;23.20;35.20;;;;;;458061;256;1838;-43
2023/01/04 08:57:37;;;;;;;;;;;23.30;35.30;;;;;;465700;252;2270;-44
2023/01/04 08:59:38;;;;;;;;;;;23.30;35.20;;;;;;475858;249;1705;-44
2023/01/04 09:01:39;;;;;;;;;;;23.30;35.10;;;;;;458137;256;1821;-44
2023/01/04 09:03:41;;;;;;;;;;;23.30;35.10;;;;;;465710;252;1959;-44
2023/01/04 09:05:43;;;;;;;;;;;23.40;35.10;;;;;;475737;249;1799;-44
2023/01/04 09:07:43;;;;;;;;;;;23.40;35.00;;;;;;458041;256;2571;-44
2023/01/04 09:09:45;;;;;;;;;;;23.40;35.10;;;;;;465688;252;2189;-44
2023/01/04 09:11:46;;;;;;;;;;;23.40;35.00;;;;;;475599;249;1938;-44
2023/01/04 09:13:47;;;;;;;;;;;23.40;35.00;;;;;;457922;257;1968;-44
2023/01/04 09:15:49;;;;;;;;;;;23.50;35.00;;;;;;465680;252;1913;-44
2023/01/04 09:17:50;;;;;;;;;;;23.40;35.10;;;;;;475678;249;2423;-43
2023/01/04 09:19:51;;;;;;;;;;;23.40;35.20;;;;;;457977;257;1779;-43
2023/01/04 09:21:53;;;;;;;;;;;23.10;35.50;;;;;;465501;252;1741;-44
2023/01/04 09:23:54;;;;;;;;;;;22.80;36.00;;;;;;475690;249;1670;-43
2023/01/04 09:25:55;;;;;;;;;;;22.60;36.40;;;;;;457884;257;1698;-43
2023/01/04 09:27:57;;;;;;;;;;;22.40;36.70;;;;;;465657;252;1737;-43
2023/01/04 09:29:58;;;;;;;;;;;22.30;36.90;;;;;;475790;249;2188;-44
2023/01/04 09:31:59;;;;;;;;;;;22.20;37.20;;;;;;457862;257;2025;-44
2023/01/04 09:34:01;;;;;;;;;;;22.10;37.30;;;;;;465620;252;1669;-43
2023/01/04 09:36:02;;;;;;;;;;;22.00;37.60;;;;;;475503;249;1874;-44
2023/01/04 09:38:04;;;;;;;;;;;21.90;37.70;;;;;;458003;256;2023;-43
2023/01/04 09:40:05;;;;;;;;;;;21.90;37.80;;;;;;465099;252;1761;-43
2023/01/04 09:42:07;;;;;;;;;;;21.80;37.90;;;;;;474445;249;1707;-44
2023/01/04 09:44:08;;;;;;;;;;;21.80;38.00;;;;;;458011;257;1868;-43
2023/01/04 09:46:09;;;;;;;;;;;21.70;38.00;;;;;;465534;252;1593;-43
2023/01/04 09:48:10;;;;;;;;;;;21.70;38.10;;;;;;475561;249;2416;-43
2023/01/04 09:50:12;;;;;;;;;;;21.60;38.10;;;;;;457950;257;2202;-44
2023/01/04 09:52:13;;;;;;;;;;;21.60;38.30;;;;;;465409;252;1700;-43
2023/01/04 09:54:15;;;;;;;;;;;21.70;38.20;;;;;;475628;249;1756;-43
2023/01/04 09:56:16;;;;;;;;;;;21.70;38.10;;;;;;457850;255;2128;-43
2023/01/04 09:58:17;;;;;;;;;;;21.70;38.00;;;;;;465826;252;1745;-43
2023/01/04 10:00:19;;;;;;;;;;;21.80;38.00;;;;;;475862;249;1760;-43
2023/01/04 10:02:20;;;;;;;;;;;21.80;37.90;;;;;;458255;256;1659;-44
2023/01/04 10:04:21;;;;;;;;;;;21.80;37.90;;;;;;465843;252;1682;-43
2023/01/04 10:06:23;;;;;;;;;;;21.80;37.80;;;;;;475898;249;1736;-43
2023/01/04 10:08:24;;;;;;;;;;;21.90;37.80;;;;;;458168;257;1562;-44
2023/01/04 10:10:25;;;;;;;;;;;21.90;37.80;;;;;;465835;252;2197;-43
2023/01/04 10:12:27;;;;;;;;;;;21.90;37.80;;;;;;475862;249;1682;-43
2023/01/04 10:14:28;;;;;;;;;;;21.90;37.70;;;;;;458066;255;1861;-43
2023/01/04 10:16:29;;;;;;;;;;;21.90;37.70;;;;;;465769;252;1952;-44
2023/01/04 10:18:31;;;;;;;;;;;21.90;37.80;;;;;;475865;249;1685;-43
2023/01/04 10:20:32;;;;;;;;;;;21.80;37.80;;;;;;458123;256;1723;-43
2023/01/04 10:22:33;;;;;;;;;;;21.80;37.80;;;;;;465617;252;1849;-43
2023/01/04 10:24:35;;;;;;;;;;;21.80;37.80;;;;;;475756;249;1939;-43
2023/01/04 10:26:36;;;;;;;;;;;21.80;37.90;;;;;;458050;257;1670;-44
2023/01/04 10:28:38;;;;;;;;;;;21.80;37.90;;;;;;465791;252;1385;-44
2023/01/04 10:30:39;;;;;;;;;;;21.80;37.90;;;;;;475689;249;2184;-44
2023/01/04 10:32:40;;;;;;;;;;;21.80;37.90;;;;;;458015;257;1776;-43
2023/01/04 10:34:41;;;;;;;;;;;21.80;37.90;;;;;;465663;252;1838;-43
2023/01/04 10:36:43;;;;;;;;;;;21.70;37.80;;;;;;475508;249;1566;-44
2023/01/04 10:38:45;;;;;;;;;;;21.70;37.90;;;;;;458141;257;1741;-43
2023/01/04 10:40:45;;;;;;;;;;;21.70;37.90;;;;;;465657;255;2105;-43
2023/01/04 10:42:47;;;;;;;;;;;21.70;37.90;;;;;;475726;249;1888;-43
2023/01/04 10:44:48;;;;;;;;;;;21.70;38.00;;;;;;458034;257;1981;-43
2023/01/04 10:46:49;;;;;;;;;;;21.70;38.00;;;;;;465659;252;1528;-44
2023/01/04 10:48:51;;;;;;;;;;;21.70;38.00;;;;;;475984;249;2866;-44
2023/01/04 10:50:52;;;;;;;;;;;21.70;38.00;;;;;;458202;257;2202;-43
2023/01/04 10:52:53;;;;;;;;;;;21.60;37.90;;;;;;465818;252;2245;-43
2023/01/04 10:54:55;;;;;;;;;;;21.70;37.90;;;;;;475928;249;1711;-43
2023/01/04 10:56:56;;;;;;;;;;;21.60;37.90;;;;;;458212;256;1724;-44
2023/01/04 10:58:57;;;;;;;;;;;21.60;38.00;;;;;;465876;252;1762;-44
2023/01/04 11:00:59;;;;;;;;;;;21.60;38.00;;;;;;475777;249;1807;-43
2023/01/04 11:03:01;;;;;;;;;;;21.70;38.00;;;;;;458181;256;2217;-43
2023/01/04 11:05:02;;;;;;;;;;;21.60;38.00;;;;;;465566;252;1983;-44
2023/01/04 11:07:03;;;;;;;;;;;21.70;38.00;;;;;;475625;249;1666;-44
2023/01/04 11:09:05;;;;;;;;;;;21.60;38.00;;;;;;458105;257;1681;-43
2023/01/04 11:11:06;;;;;;;;;;;21.60;38.00;;;;;;465724;252;2135;-43
2023/01/04 11:13:07;;;;;;;;;;;21.60;38.00;;;;;;475805;249;1599;-43
2023/01/04 11:15:09;;;;;;;;;;;21.60;37.90;;;;;;458077;256;1997;-44
2023/01/04 11:17:10;;;;;;;;;;;21.60;38.00;;;;;;465666;252;1959;-43
2023/01/04 11:19:11;;;;;;;;;;;21.60;37.90;;;;;;475833;249;1699;-43
2023/01/04 11:21:13;;;;;;;;;;;21.60;37.90;;;;;;458053;256;1723;-43
2023/01/04 11:23:14;;;;;;;;;;;21.60;38.00;;;;;;465871;252;1601;-43
2023/01/04 11:25:15;;;;;;;;;;;21.60;38.00;;;;;;475809;249;1840;-44
2023/01/04 11:27:17;;;;;;;;;;;21.60;37.90;;;;;;458136;256;1817;-43
2023/01/04 11:29:18;;;;;;;;;;;21.70;38.00;;;;;;465830;252;2196;-43
2023/01/04 11:31:19;;;;;;;;;;;21.70;37.90;;;;;;475870;249;1860;-43
2023/01/04 11:33:21;;;;;;;;;;;21.70;37.90;;;;;;458133;257;1673;-43
2023/01/04 11:35:22;;;;;;;;;;;21.60;37.80;;;;;;465894;252;1745;-44
2023/01/04 11:37:24;;;;;;;;;;;21.60;37.80;;;;;;475729;249;1388;-43
2023/01/04 11:39:25;;;;;;;;;;;21.60;37.90;;;;;;458077;257;1790;-43
2023/01/04 11:41:26;;;;;;;;;;;21.60;37.90;;;;;;465548;252;2084;-44
2023/01/04 11:43:28;;;;;;;;;;;21.60;37.90;;;;;;475677;249;1884;-44
2023/01/04 11:45:29;;;;;;;;;;;21.60;37.90;;;;;;457975;256;1768;-43
2023/01/04 11:47:30;;;;;;;;;;;21.60;37.90;;;;;;465578;252;1886;-43
2023/01/04 11:49:32;;;;;;;;;;;21.60;37.90;;;;;;475600;249;2224;-44
2023/01/04 11:51:35;;;;;;;;;;;21.60;38.00;;;;;;457866;256;1757;-43
2023/01/04 11:53:34;;;;;;;;;;;21.60;38.00;;;;;;465640;255;2234;-43
2023/01/04 11:55:36;;;;;;;;;;;21.60;37.90;;;;;;475629;249;1676;-43
2023/01/04 11:57:37;;;;;;;;;;;21.60;37.90;;;;;;457977;256;2047;-43
2023/01/04 11:59:38;;;;;;;;;;;21.60;37.80;;;;;;465629;252;1690;-43
2023/01/04 12:01:40;;;;;;;;;;;21.60;37.80;;;;;;475496;249;1734;-44
2023/01/04 12:03:41;;;;;;;;;;;21.60;37.90;;;;;;457892;257;2010;-44
2023/01/04 12:05:42;;;;;;;;;;;21.60;37.90;;;;;;465581;252;2149;-43
2023/01/04 12:07:44;;;;;;;;;;;21.50;37.80;;;;;;475551;249;1542;-44
2023/01/04 12:09:45;;;;;;;;;;;21.60;37.90;;;;;;457903;257;2190;-44
2023/01/04 12:11:48;;;;;;;;;;;21.50;37.90;;;;;;465526;252;1693;-44
2023/01/04 12:13:48;;;;;;;;;;;21.60;37.80;;;;;;475463;250;1827;-44
2023/01/04 12:15:49;;;;;;;;;;;21.60;37.80;;;;;;457918;256;1889;-44
2023/01/04 12:17:50;;;;;;;;;;;21.50;37.80;;;;;;465585;252;2078;-43
2023/01/04 12:19:53;;;;;;;;;;;21.50;37.80;;;;;;475701;249;1609;-43
2023/01/04 12:21:53;;;;;;;;;;;21.50;37.80;;;;;;457932;257;1907;-43
2023/01/04 12:23:54;;;;;;;;;;;21.50;37.80;;;;;;465764;252;2185;-43
2023/01/04 12:25:56;;;;;;;;;;;21.50;37.80;;;;;;475619;249;1729;-44
2023/01/04 12:27:57;;;;;;;;;;;21.50;37.80;;;;;;458019;255;1751;-43
2023/01/04 12:29:59;;;;;;;;;;;21.50;37.80;;;;;;465800;252;2173;-43
2023/01/04 12:32:00;;;;;;;;;;;21.50;37.80;;;;;;475582;249;1811;-43
2023/01/04 12:34:01;;;;;;;;;;;21.60;37.90;;;;;;457910;256;1719;-44
2023/01/04 12:36:03;;;;;;;;;;;21.50;37.80;;;;;;465622;252;1726;-43
2023/01/04 12:38:04;;;;;;;;;;;21.50;37.70;;;;;;475646;249;1797;-43
2023/01/04 12:40:05;;;;;;;;;;;21.60;37.80;;;;;;457989;257;1878;-43
2023/01/04 12:42:07;;;;;;;;;;;21.70;37.60;;;;;;465457;252;2155;-44